Saturday, September 22, 2018, 2:30 AM CDT
Back to Local

KMDW, Chicago Midway Airport

Location: Chicago, IL, United States Lat: 41.783
Local Time: 2:30 AM CDT ( 7:30 GMT) Lon: -87.75
Time Zone: US/Central Elev: 620 ft

Show me the last for .
Show Decoded

2018-09-22 01:53 METAR KMDW 220653Z 02014G19KT 10SM BKN039 OVC250 15/07 A3027 RMK AO2 SLP245
                 T01500072 =
2018-09-22 00:53 METAR KMDW 220553Z 35012KT 10SM BKN040 OVC250 14/06 A3026 RMK AO2 SLP242
                 T01440061 10200 20144 402830144 50008 =
2018-09-21 23:53 METAR KMDW 220453Z 35011KT 10SM FEW050 OVC250 14/05 A3027 RMK AO2 SLP244
                 T01440050 =
2018-09-21 22:53 METAR KMDW 220353Z 36008KT 10SM FEW050 OVC250 15/05 A3026 RMK AO2 SLP241
                 T01500050 =
2018-09-21 21:53 METAR KMDW 220253Z 36016G23KT 10SM FEW050 OVC250 16/07 A3024 RMK AO2 SLP232
                 T01610072 51042 =
2018-09-21 20:53 METAR KMDW 220153Z 34013KT 10SM FEW050 SCT250 17/07 A3021 RMK AO2 SLP223
                 T01720072 =
2018-09-21 19:53 METAR KMDW 220053Z 34011G21KT 10SM SCT050 SCT250 18/07 A3016 RMK AO2 PK WND
                 34028/0014 SLP206 T01780072 =
2018-09-21 18:53 METAR KMDW 212353Z 33014KT 10SM SCT050 SCT180 BKN250 20/09 A3011 RMK AO2 SLP187
                 T02000089 10244 20200 53032 =
2018-09-21 17:53 METAR KMDW 212253Z 32013KT 10SM SCT050 SCT180 BKN250 21/09 A3007 RMK AO2 SLP175
                 T02060089 =
2018-09-21 16:53 METAR KMDW 212153Z 31013KT 10SM SCT050 SCT180 BKN250 22/10 A3004 RMK AO2 PK WND
                 29026/2057 SLP162 T02170100 =
2018-09-21 15:53 METAR KMDW 212053Z 30014G23KT 10SM FEW050 SCT200 BKN250 23/11 A3001 RMK AO2 PK
                 WND 29027/2038 SLP154 T02280106 52026 =
2018-09-21 14:53 METAR KMDW 211953Z 29016G25KT 10SM FEW047 SCT200 BKN250 24/11 A2998 RMK AO2 PK
                 WND 28028/1932 SLP142 T02390106 =
2018-09-21 13:53 METAR KMDW 211853Z 27014G25KT 10SM FEW040 FEW050 SCT200 BKN250 23/11 A2997 RMK
                 AO2 PK WND 26029/1832 SLP138 T02330111 =
2018-09-21 12:53 METAR KMDW 211753Z 26018G26KT 10SM FEW040 SCT050 BKN200 BKN250 24/13 A2994 RMK
                 AO2 PK WND 27029/1717 SLP125 T02440133 10267 20244 51025 =
2018-09-21 11:53 METAR KMDW 211653Z 28016G24KT 10SM SCT038 SCT046 BKN150 BKN250 24/15 A2991 RMK
                 AO2 SLP116 T02440150 =
2018-09-21 10:53 METAR KMDW 211553Z 27012G28KT 10SM SCT033 BKN043 BKN150 BKN250 24/17 A2989 RMK
                 AO2 PK WND 26028/1544 SLP110 T02440167 =
2018-09-21 09:53 METAR KMDW 211453Z 25015G27KT 10SM BKN044 BKN150 BKN200 BKN250 24/17 A2986 RMK
                 AO2 PK WND 25031/1412 SLP100 T02440172 51029 =
2018-09-21 08:53 METAR KMDW 211353Z 27016G32KT 10SM FEW040 BKN150 BKN200 BKN250 24/17 A2983 RMK
                 AO2 PK WND 24034/1301 SLP091 T02440167 =
2018-09-21 07:53 METAR KMDW 211253Z 23011G18KT 10SM FEW020 BKN150 BKN200 BKN250 24/20 A2981 RMK
                 AO2 SLP080 T02440200 =
2018-09-21 06:53 METAR KMDW 211153Z 20010KT 10SM SCT060 BKN150 BKN200 BKN250 25/20 A2977 RMK AO2
                 SLP068 60000 T02500200 10283 20250 50002 =
2018-09-21 05:53 METAR KMDW 211053Z 21011KT 10SM FEW120 BKN150 26/19 A2979 RMK AO2 PK WND
                 24028/1016 SLP073 T02560194 =
2018-09-21 04:53 METAR KMDW 210953Z 23014G25KT 10SM SCT043 BKN070 OVC090 27/19 A2977 RMK AO2 PK
                 WND 21027/0919 LTG DSNT SE AND S RAB46E52 SLP066 OCNL LTGCG DSNT SE-S CB DSNT
                 SE-S P0000 T02670189 =
2018-09-21 03:53 METAR KMDW 210853Z 21015G28KT 10SM SCT070 BKN100 27/18 A2976 RMK AO2 PK WND
                 23028/0849 SLP064 T02720183 56014 =
2018-09-21 02:53 METAR KMDW 210753Z 21016G25KT 10SM FEW150 28/18 A2978 RMK AO2 PK WND 21029/0709
                 SLP068 T02780183 =

Support USWX by starting your Amazon purchase here.